1923 NOT_NAMED (1923123N13138)


IBTrACS version v04r00. Visit IBTrACS website for data access.
Please direct all questions to the IBTrACS Q and A forum

Storm track - Intensity - Wind Radii - Intensity Data - Source Data - All data

Summary Information

Storm ID 1923123N13138
Start May 2 22Z
End May 7 22Z
ATCF IDs
Track status Best track data.

Storm track plot

Map of storm track

Intensity plots

No Intensity information for this storm


Radial wind information

No radial wind information for this storm


Position and Intensity Table

BASIN ISO_TIME_________ NATURE LAT LON
degrees north degrees east
WP 1923-05-02 22:00:00 NR 12.70 138.40
WP 1923-05-03 00:00:00 NR 12.85 138.42
WP 03:00:00 NR 13.08 138.44
WP 06:00:00 NR 13.30 138.47
WP 09:00:00 NR 13.53 138.49
WP 10:00:00 NR 13.60 138.50
WP 12:00:00 NR 13.74 138.52
WP 15:00:00 NR 13.96 138.54
WP 18:00:00 NR 14.18 138.57
WP 21:00:00 NR 14.42 138.59
WP 22:00:00 NR 14.50 138.60
WP 1923-05-04 00:00:00 NR 14.67 138.62
WP 03:00:00 NR 14.94 138.64
WP 06:00:00 NR 15.21 138.67
WP 09:00:00 NR 15.50 138.69
WP 10:00:00 NR 15.60 138.70
WP 12:00:00 NR 15.79 138.71
WP 15:00:00 NR 16.09 138.74
WP 18:00:00 NR 16.39 138.76
WP 21:00:00 NR 16.70 138.79
WP 22:00:00 NR 16.80 138.80
WP 1923-05-05 00:00:00 NR 17.01 138.83
WP 03:00:00 NR 17.34 138.88
WP 06:00:00 NR 17.67 138.93
WP 09:00:00 NR 17.99 138.98
WP 10:00:00 NR 18.10 139.00
WP 12:00:00 NR 18.30 139.03
WP 15:00:00 NR 18.59 139.08
WP 18:00:00 NR 18.88 139.13
WP 21:00:00 NR 19.19 139.18
WP 22:00:00 NR 19.30 139.20
WP 1923-05-06 00:00:00 NR 19.54 139.23
WP 03:00:00 NR 19.92 139.28
WP 06:00:00 NR 20.31 139.33
WP 09:00:00 NR 20.68 139.38
WP 10:00:00 NR 20.80 139.40
WP 12:00:00 NR 20.94 139.39
WP 15:00:00 NR 21.14 139.36
WP 18:00:00 NR 21.39 139.39
WP 21:00:00 NR 21.81 139.52
WP 22:00:00 NR 22.00 139.60
WP 1923-05-07 00:00:00 NR 22.53 139.81
WP 03:00:00 NR 23.50 140.24
WP 06:00:00 NR 24.58 140.80
WP 09:00:00 NR 25.66 141.46
WP 10:00:00 NR 26.00 141.70
WP 12:00:00 NR 26.64 142.20
WP 15:00:00 NR 27.49 143.00
WP 18:00:00 NR 28.26 143.84
WP 21:00:00 NR 28.97 144.71
WP 22:00:00 NR 29.20 145.00

Source Information

Agency Information
USA
TOKYO
CMA
HKO
NEWDELHI
REUNION
BOM
NADI
WELLINGTON
DS824
TD9636 cons_worldwide_trop_cyclone_18710101-19891231-003:Line=6848
TD9635
NEUMANN
MLC

All available IBTrACS Data

SEASON BASIN SUBBASIN ISO_TIME_________ NATURE LAT LON DIST2LAND LANDFALL IFLAG USA SSHS TD9636 LAT TD9636 LON TD9636 STAGE STORM SPEED STORM DIR
Year degrees north degrees east km km 1 degrees north degrees east kts degrees
1923 WP MM 1923-05-02 22:00:00 NR 12.70 138.40 1385 1385 __________O___ -1 12.70 138.40 4 5 7
1923 WP MM 1923-05-03 00:00:00 NR 12.85 138.42 1387 1387 __________P___ -1 12.85 138.42 4 5 6
1923 WP MM 03:00:00 NR 13.08 138.44 1390 1390 __________P___ -1 13.08 138.44 4 5 7
1923 WP MM 06:00:00 NR 13.30 138.47 1405 1405 __________P___ -1 13.30 138.47 4 5 7
1923 WP MM 09:00:00 NR 13.53 138.49 1408 1408 __________P___ -1 13.53 138.49 4 4 9
1923 WP MM 10:00:00 NR 13.60 138.50 1410 1410 __________O___ -1 13.60 138.50 4 4 0
1923 WP MM 12:00:00 NR 13.74 138.52 1412 1415 __________P___ -1 13.74 138.52 4 4 7
1923 WP MM 15:00:00 NR 13.96 138.54 1419 1419 __________P___ -1 13.96 138.54 4 4 7
1923 WP MM 18:00:00 NR 14.18 138.57 1435 1435 __________P___ -1 14.18 138.57 4 5 7
1923 WP MM 21:00:00 NR 14.42 138.59 1439 1439 __________P___ -1 14.42 138.59 4 5 8
1923 WP MM 22:00:00 NR 14.50 138.60 1441 1441 __________O___ -1 14.50 138.60 4 5 0
1923 WP MM 1923-05-04 00:00:00 NR 14.67 138.62 1444 1444 __________P___ -1 14.67 138.62 4 5 4
1923 WP MM 03:00:00 NR 14.94 138.64 1448 1450 __________P___ -1 14.94 138.64 4 6 4
1923 WP MM 06:00:00 NR 15.21 138.67 1465 1465 __________P___ -1 15.21 138.67 4 6 4
1923 WP MM 09:00:00 NR 15.50 138.69 1472 1472 __________P___ -1 15.50 138.69 4 6 6
1923 WP MM 10:00:00 NR 15.60 138.70 1475 1475 __________O___ -1 15.60 138.70 4 6 0
1923 WP MM 12:00:00 NR 15.79 138.71 1480 1480 __________P___ -1 15.79 138.71 4 6 6
1923 WP MM 15:00:00 NR 16.09 138.74 1488 1488 __________P___ -1 16.09 138.74 4 6 3
1923 WP MM 18:00:00 NR 16.39 138.76 1508 1508 __________P___ -1 16.39 138.76 4 6 6
1923 WP MM 21:00:00 NR 16.70 138.79 1518 1518 __________P___ -1 16.70 138.79 4 6 5
1923 WP MM 22:00:00 NR 16.80 138.80 1521 1521 __________O___ -1 16.80 138.80 4 6 8
1923 WP MM 1923-05-05 00:00:00 NR 17.01 138.83 1528 1528 __________P___ -1 17.01 138.83 4 7 8
1923 WP MM 03:00:00 NR 17.34 138.88 1549 1553 __________P___ -1 17.34 138.88 4 7 9
1923 WP MM 06:00:00 NR 17.67 138.93 1565 1565 __________P___ -1 17.67 138.93 4 7 9
1923 WP MM 09:00:00 NR 17.99 138.98 1587 1587 __________P___ -1 17.99 138.98 4 7 10
1923 WP MM 10:00:00 NR 18.10 139.00 1592 1592 __________O___ -1 18.10 139.00 4 6 10
1923 WP MM 12:00:00 NR 18.30 139.03 1600 1600 __________P___ -1 18.30 139.03 4 6 9
1923 WP MM 15:00:00 NR 18.59 139.08 1622 1593 __________P___ -1 18.59 139.08 4 6 10
1923 WP MM 18:00:00 NR 18.88 139.13 1593 1570 __________P___ -1 18.88 139.13 4 6 9
1923 WP MM 21:00:00 NR 19.19 139.18 1570 1560 __________P___ -1 19.19 139.18 4 6 10
1923 WP MM 22:00:00 NR 19.30 139.20 1560 1541 __________O___ -1 19.30 139.20 4 7 6
1923 WP MM 1923-05-06 00:00:00 NR 19.54 139.23 1541 1507 __________P___ -1 19.54 139.23 4 8 7
1923 WP MM 03:00:00 NR 19.92 139.28 1507 1468 __________P___ -1 19.92 139.28 4 8 7
1923 WP MM 06:00:00 NR 20.31 139.33 1468 1436 __________P___ -1 20.31 139.33 4 8 7
1923 WP MM 09:00:00 NR 20.68 139.38 1436 1426 __________P___ -1 20.68 139.38 4 7 6
1923 WP MM 10:00:00 NR 20.80 139.40 1426 1417 __________O___ -1 20.80 139.40 4 5 3
1923 WP MM 12:00:00 NR 20.94 139.39 1417 1398 __________P___ -1 20.94 139.39 4 4 353
1923 WP MM 15:00:00 NR 21.14 139.36 1398 1370 __________P___ -1 21.14 139.36 4 5 2
1923 WP MM 18:00:00 NR 21.39 139.39 1370 1339 __________P___ -1 21.39 139.39 4 7 12
1923 WP MM 21:00:00 NR 21.81 139.52 1339 1326 __________P___ -1 21.81 139.52 4 10 18
1923 WP MM 22:00:00 NR 22.00 139.60 1326 1278 __________O___ -1 22.00 139.60 4 15 20
1923 WP MM 1923-05-07 00:00:00 NR 22.53 139.81 1278 1185 __________P___ -1 22.53 139.81 4 19 22
1923 WP MM 03:00:00 NR 23.50 140.24 1185 1095 __________P___ -1 23.50 140.24 4 23 24
1923 WP MM 06:00:00 NR 24.58 140.80 1095 1020 __________P___ -1 24.58 140.80 4 24 27
1923 WP MM 09:00:00 NR 25.66 141.46 1020 1006 __________P___ -1 25.66 141.46 4 25 30
1923 WP MM 10:00:00 NR 26.00 141.70 998 949 __________O___ -1 26.00 141.70 4 24 34
1923 WP MM 12:00:00 NR 26.64 142.20 949 876 __________P___ -1 26.64 142.20 4 23 38
1923 WP MM 15:00:00 NR 27.49 143.00 876 823 __________P___ -1 27.49 143.00 4 22 42
1923 WP MM 18:00:00 NR 28.26 143.84 823 798 __________P___ -1 28.26 143.84 4 21 46
1923 WP MM 21:00:00 NR 28.97 144.71 798 796 __________P___ -1 28.97 144.71 4 21 47
1923 WP MM 22:00:00 NR 29.20 145.00 796 __________O___ -1 29.20 145.00 4 21 48